sensor_id;sensor_type;location;lat;lon;timestamp;P1;durP1;ratioP1;P2;durP2;ratioP2
31224;SDS011;17847;31.524;74.366;2022-10-26T00:02:23;247.68;;;159.55;;
31224;SDS011;17847;31.524;74.366;2022-10-26T00:05:18;246.05;;;156.60;;
31224;SDS011;17847;31.524;74.366;2022-10-26T00:07:54;234.27;;;150.32;;
31224;SDS011;17847;31.524;74.366;2022-10-26T00:10:49;215.30;;;142.73;;
31224;SDS011;17847;31.524;74.366;2022-10-26T00:13:25;215.23;;;134.82;;
31224;SDS011;17847;31.524;74.366;2022-10-26T00:16:24;193.23;;;121.78;;
31224;SDS011;17847;31.524;74.366;2022-10-26T00:19:08;165.90;;;105.25;;
31224;SDS011;17847;31.524;74.366;2022-10-26T00:21:56;176.60;;;105.85;;
31224;SDS011;17847;31.524;74.366;2022-10-26T00:24:39;178.73;;;109.85;;
31224;SDS011;17847;31.524;74.366;2022-10-26T00:27:34;207.00;;;129.73;;
31224;SDS011;17847;31.524;74.366;2022-10-26T00:30:10;224.10;;;143.75;;
31224;SDS011;17847;31.524;74.366;2022-10-26T00:33:05;256.52;;;166.38;;
31224;SDS011;17847;31.524;74.366;2022-10-26T00:35:53;274.23;;;171.07;;
31224;SDS011;17847;31.524;74.366;2022-10-26T00:38:47;256.52;;;169.75;;
31224;SDS011;17847;31.524;74.366;2022-10-26T00:41:27;272.60;;;180.48;;
31224;SDS011;17847;31.524;74.366;2022-10-26T00:47:38;277.55;;;196.88;;
31224;SDS011;17847;31.524;74.366;2022-10-26T00:50:41;262.75;;;183.05;;
31224;SDS011;17847;31.524;74.366;2022-10-26T00:53:27;255.07;;;177.03;;
31224;SDS011;17847;31.524;74.366;2022-10-26T00:56:17;245.00;;;160.38;;
31224;SDS011;17847;31.524;74.366;2022-10-26T00:59:01;244.57;;;154.48;;
31224;SDS011;17847;31.524;74.366;2022-10-26T01:01:54;233.90;;;142.27;;
31224;SDS011;17847;31.524;74.366;2022-10-26T01:04:50;230.98;;;139.15;;
31224;SDS011;17847;31.524;74.366;2022-10-26T01:07:27;221.50;;;132.98;;
31224;SDS011;17847;31.524;74.366;2022-10-26T01:10:23;214.63;;;129.43;;
31224;SDS011;17847;31.524;74.366;2022-10-26T01:13:01;219.02;;;129.63;;
31224;SDS011;17847;31.524;74.366;2022-10-26T01:18:58;218.73;;;125.93;;
31224;SDS011;17847;31.524;74.366;2022-10-26T01:34:54;188.68;;;111.38;;
31224;SDS011;17847;31.524;74.366;2022-10-26T01:44:16;170.45;;;104.53;;
31224;SDS011;17847;31.524;74.366;2022-10-26T01:47:13;172.45;;;102.38;;
31224;SDS011;17847;31.524;74.366;2022-10-26T01:49:58;180.18;;;105.45;;
31224;SDS011;17847;31.524;74.366;2022-10-26T01:52:50;168.90;;;103.90;;
31224;SDS011;17847;31.524;74.366;2022-10-26T01:58:53;179.43;;;102.82;;
31224;SDS011;17847;31.524;74.366;2022-10-26T02:08:31;165.85;;;102.25;;
31224;SDS011;17847;31.524;74.366;2022-10-26T02:11:47;171.90;;;101.85;;
31224;SDS011;17847;31.524;74.366;2022-10-26T02:14:51;182.68;;;103.22;;
31224;SDS011;17847;31.524;74.366;2022-10-26T02:17:49;171.50;;;103.47;;
31224;SDS011;17847;31.524;74.366;2022-10-26T02:20:47;182.65;;;104.68;;
31224;SDS011;17847;31.524;74.366;2022-10-26T02:23:28;168.45;;;103.65;;
31224;SDS011;17847;31.524;74.366;2022-10-26T02:26:26;177.02;;;102.00;;
31224;SDS011;17847;31.524;74.366;2022-10-26T02:29:05;161.30;;;100.53;;
31224;SDS011;17847;31.524;74.366;2022-10-26T02:32:04;165.77;;;99.43;;
31224;SDS011;17847;31.524;74.366;2022-10-26T02:34:48;171.52;;;100.47;;
31224;SDS011;17847;31.524;74.366;2022-10-26T02:37:41;176.98;;;101.90;;
31224;SDS011;17847;31.524;74.366;2022-10-26T02:40:23;179.00;;;101.50;;
31224;SDS011;17847;31.524;74.366;2022-10-26T02:43:20;175.80;;;98.32;;
31224;SDS011;17847;31.524;74.366;2022-10-26T02:46:19;182.43;;;105.32;;
31224;SDS011;17847;31.524;74.366;2022-10-26T02:49:04;184.30;;;105.90;;
31224;SDS011;17847;31.524;74.366;2022-10-26T02:54:52;197.75;;;112.95;;
31224;SDS011;17847;31.524;74.366;2022-10-26T02:57:48;193.85;;;110.40;;
31224;SDS011;17847;31.524;74.366;2022-10-26T03:00:29;199.70;;;117.57;;
31224;SDS011;17847;31.524;74.366;2022-10-26T03:03:25;267.92;;;121.50;;
31224;SDS011;17847;31.524;74.366;2022-10-26T03:06:01;229.40;;;117.65;;
31224;SDS011;17847;31.524;74.366;2022-10-26T03:08:56;204.32;;;115.40;;
31224;SDS011;17847;31.524;74.366;2022-10-26T03:11:41;188.05;;;114.60;;
31224;SDS011;17847;31.524;74.366;2022-10-26T03:14:29;191.40;;;112.10;;
31224;SDS011;17847;31.524;74.366;2022-10-26T03:17:12;190.35;;;115.47;;
31224;SDS011;17847;31.524;74.366;2022-10-26T03:20:00;174.77;;;110.70;;
31224;SDS011;17847;31.524;74.366;2022-10-26T03:22:43;176.48;;;110.07;;
31224;SDS011;17847;31.524;74.366;2022-10-26T03:25:36;159.90;;;102.28;;
31224;SDS011;17847;31.524;74.366;2022-10-26T03:28:19;166.50;;;96.97;;
31224;SDS011;17847;31.524;74.366;2022-10-26T03:31:07;157.82;;;89.75;;
31224;SDS011;17847;31.524;74.366;2022-10-26T03:33:50;153.05;;;92.68;;
31224;SDS011;17847;31.524;74.366;2022-10-26T03:36:38;142.85;;;88.75;;
31224;SDS011;17847;31.524;74.366;2022-10-26T03:39:21;136.00;;;82.70;;
31224;SDS011;17847;31.524;74.366;2022-10-26T03:42:16;133.73;;;78.50;;
31224;SDS011;17847;31.524;74.366;2022-10-26T03:44:58;128.75;;;70.63;;
31224;SDS011;17847;31.524;74.366;2022-10-26T03:47:47;125.32;;;77.28;;
31224;SDS011;17847;31.524;74.366;2022-10-26T03:50:31;129.70;;;73.97;;
31224;SDS011;17847;31.524;74.366;2022-10-26T03:53:26;130.60;;;77.93;;
31224;SDS011;17847;31.524;74.366;2022-10-26T03:56:02;121.18;;;72.90;;
31224;SDS011;17847;31.524;74.366;2022-10-26T03:58:57;126.55;;;76.43;;
31224;SDS011;17847;31.524;74.366;2022-10-26T04:01:52;130.52;;;71.85;;
31224;SDS011;17847;31.524;74.366;2022-10-26T04:04:30;111.95;;;62.95;;
31224;SDS011;17847;31.524;74.366;2022-10-26T04:07:25;106.18;;;56.72;;
31224;SDS011;17847;31.524;74.366;2022-10-26T04:10:22;98.57;;;54.42;;
31224;SDS011;17847;31.524;74.366;2022-10-26T04:13:05;102.20;;;55.17;;
31224;SDS011;17847;31.524;74.366;2022-10-26T04:16:00;88.85;;;52.83;;
31224;SDS011;17847;31.524;74.366;2022-10-26T04:18:36;84.88;;;48.97;;
31224;SDS011;17847;31.524;74.366;2022-10-26T04:21:32;77.90;;;44.25;;
31224;SDS011;17847;31.524;74.366;2022-10-26T04:24:16;82.50;;;47.08;;
31224;SDS011;17847;31.524;74.366;2022-10-26T04:27:04;87.15;;;51.58;;
31224;SDS011;17847;31.524;74.366;2022-10-26T04:29:47;74.97;;;47.90;;
31224;SDS011;17847;31.524;74.366;2022-10-26T04:32:35;85.50;;;48.88;;
31224;SDS011;17847;31.524;74.366;2022-10-26T04:35:18;84.53;;;46.20;;
31224;SDS011;17847;31.524;74.366;2022-10-26T04:38:06;81.50;;;46.35;;
31224;SDS011;17847;31.524;74.366;2022-10-26T04:40:50;73.25;;;47.47;;
31224;SDS011;17847;31.524;74.366;2022-10-26T04:43:38;81.47;;;47.05;;
31224;SDS011;17847;31.524;74.366;2022-10-26T04:46:21;80.85;;;48.10;;
31224;SDS011;17847;31.524;74.366;2022-10-26T04:49:16;83.75;;;51.65;;
31224;SDS011;17847;31.524;74.366;2022-10-26T04:51:59;88.90;;;50.78;;
31224;SDS011;17847;31.524;74.366;2022-10-26T04:54:54;86.18;;;54.80;;
31224;SDS011;17847;31.524;74.366;2022-10-26T04:57:37;97.88;;;55.25;;
31224;SDS011;17847;31.524;74.366;2022-10-26T05:00:26;105.85;;;56.45;;
31224;SDS011;17847;31.524;74.366;2022-10-26T05:03:10;97.07;;;58.42;;
31224;SDS011;17847;31.524;74.366;2022-10-26T05:06:05;104.88;;;56.50;;
31224;SDS011;17847;31.524;74.366;2022-10-26T05:08:54;100.03;;;60.42;;
31224;SDS011;17847;31.524;74.366;2022-10-26T05:11:49;94.00;;;59.47;;
31224;SDS011;17847;31.524;74.366;2022-10-26T05:14:32;113.45;;;64.32;;
31224;SDS011;17847;31.524;74.366;2022-10-26T05:17:27;99.25;;;57.22;;
31224;SDS011;17847;31.524;74.366;2022-10-26T05:20:10;101.88;;;58.28;;
31224;SDS011;17847;31.524;74.366;2022-10-26T05:23:09;93.57;;;54.45;;
31224;SDS011;17847;31.524;74.366;2022-10-26T05:25:53;92.55;;;50.22;;
31224;SDS011;17847;31.524;74.366;2022-10-26T05:28:42;81.00;;;44.95;;
31224;SDS011;17847;31.524;74.366;2022-10-26T05:31:25;60.22;;;34.92;;
31224;SDS011;17847;31.524;74.366;2022-10-26T05:34:13;57.67;;;33.47;;
31224;SDS011;17847;31.524;74.366;2022-10-26T05:36:56;63.00;;;35.67;;
31224;SDS011;17847;31.524;74.366;2022-10-26T05:39:51;60.10;;;36.67;;
31224;SDS011;17847;31.524;74.366;2022-10-26T05:42:34;77.13;;;36.85;;
31224;SDS011;17847;31.524;74.366;2022-10-26T05:45:23;65.40;;;38.08;;
31224;SDS011;17847;31.524;74.366;2022-10-26T05:48:06;72.90;;;40.55;;
31224;SDS011;17847;31.524;74.366;2022-10-26T05:51:01;69.13;;;39.22;;
31224;SDS011;17847;31.524;74.366;2022-10-26T05:53:44;75.10;;;41.70;;
31224;SDS011;17847;31.524;74.366;2022-10-26T05:59:15;85.00;;;46.92;;
31224;SDS011;17847;31.524;74.366;2022-10-26T06:02:26;86.55;;;52.65;;
31224;SDS011;17847;31.524;74.366;2022-10-26T06:05:17;89.57;;;51.65;;
31224;SDS011;17847;31.524;74.366;2022-10-26T06:08:20;92.75;;;55.15;;
31224;SDS011;17847;31.524;74.366;2022-10-26T06:11:17;81.32;;;46.65;;
31224;SDS011;17847;31.524;74.366;2022-10-26T06:14:00;78.10;;;47.45;;
31224;SDS011;17847;31.524;74.366;2022-10-26T06:16:58;83.95;;;46.45;;
31224;SDS011;17847;31.524;74.366;2022-10-26T06:29:54;61.90;;;30.70;;
31224;SDS011;17847;31.524;74.366;2022-10-26T06:32:43;59.13;;;27.33;;
31224;SDS011;17847;31.524;74.366;2022-10-26T06:35:56;53.08;;;27.00;;
31224;SDS011;17847;31.524;74.366;2022-10-26T06:39:03;60.97;;;23.45;;
31224;SDS011;17847;31.524;74.366;2022-10-26T06:41:54;48.58;;;22.95;;
31224;SDS011;17847;31.524;74.366;2022-10-26T06:44:38;41.63;;;23.00;;
31224;SDS011;17847;31.524;74.366;2022-10-26T06:47:48;47.40;;;22.73;;
31224;SDS011;17847;31.524;74.366;2022-10-26T06:50:49;47.80;;;20.88;;
31224;SDS011;17847;31.524;74.366;2022-10-26T06:54:05;41.30;;;21.52;;
31224;SDS011;17847;31.524;74.366;2022-10-26T06:57:02;45.78;;;22.63;;
31224;SDS011;17847;31.524;74.366;2022-10-26T06:59:58;41.80;;;21.83;;
31224;SDS011;17847;31.524;74.366;2022-10-26T07:02:43;44.50;;;20.88;;
31224;SDS011;17847;31.524;74.366;2022-10-26T07:05:33;43.78;;;21.80;;
31224;SDS011;17847;31.524;74.366;2022-10-26T07:08:22;41.65;;;21.60;;
31224;SDS011;17847;31.524;74.366;2022-10-26T07:11:05;39.78;;;20.67;;
31224;SDS011;17847;31.524;74.366;2022-10-26T07:13:55;43.85;;;23.10;;
31224;SDS011;17847;31.524;74.366;2022-10-26T07:16:31;50.53;;;22.38;;
31224;SDS011;17847;31.524;74.366;2022-10-26T07:19:26;37.35;;;22.00;;
31224;SDS011;17847;31.524;74.366;2022-10-26T07:22:02;43.60;;;23.70;;
31224;SDS011;17847;31.524;74.366;2022-10-26T07:24:57;45.47;;;21.05;;
31224;SDS011;17847;31.524;74.366;2022-10-26T07:27:36;40.63;;;19.85;;
31224;SDS011;17847;31.524;74.366;2022-10-26T07:30:31;38.55;;;19.70;;
31224;SDS011;17847;31.524;74.366;2022-10-26T07:33:14;33.63;;;19.58;;
31224;SDS011;17847;31.524;74.366;2022-10-26T07:36:03;42.47;;;20.13;;
31224;SDS011;17847;31.524;74.366;2022-10-26T07:38:46;36.00;;;19.17;;
31224;SDS011;17847;31.524;74.366;2022-10-26T07:41:37;37.80;;;18.60;;
31224;SDS011;17847;31.524;74.366;2022-10-26T07:44:19;30.70;;;17.90;;
31224;SDS011;17847;31.524;74.366;2022-10-26T07:47:07;42.15;;;19.25;;
31224;SDS011;17847;31.524;74.366;2022-10-26T07:49:50;34.10;;;17.92;;
31224;SDS011;17847;31.524;74.366;2022-10-26T07:52:38;29.50;;;17.90;;
31224;SDS011;17847;31.524;74.366;2022-10-26T07:55:22;35.05;;;18.60;;
31224;SDS011;17847;31.524;74.366;2022-10-26T07:58:10;38.63;;;19.25;;
31224;SDS011;17847;31.524;74.366;2022-10-26T08:00:53;46.17;;;19.70;;
31224;SDS011;17847;31.524;74.366;2022-10-26T08:03:42;37.55;;;20.63;;
31224;SDS011;17847;31.524;74.366;2022-10-26T08:06:25;43.85;;;19.70;;
31224;SDS011;17847;31.524;74.366;2022-10-26T08:09:13;39.25;;;19.77;;
31224;SDS011;17847;31.524;74.366;2022-10-26T08:11:56;40.85;;;19.13;;
31224;SDS011;17847;31.524;74.366;2022-10-26T08:14:44;43.38;;;20.15;;
31224;SDS011;17847;31.524;74.366;2022-10-26T08:17:27;39.45;;;18.70;;
31224;SDS011;17847;31.524;74.366;2022-10-26T08:20:16;36.33;;;18.05;;
31224;SDS011;17847;31.524;74.366;2022-10-26T08:22:59;37.13;;;17.98;;
31224;SDS011;17847;31.524;74.366;2022-10-26T08:25:48;31.25;;;16.48;;
31224;SDS011;17847;31.524;74.366;2022-10-26T08:28:31;33.00;;;17.92;;
31224;SDS011;17847;31.524;74.366;2022-10-26T08:31:26;40.45;;;19.63;;
31224;SDS011;17847;31.524;74.366;2022-10-26T08:34:09;52.15;;;21.45;;
31224;SDS011;17847;31.524;74.366;2022-10-26T08:36:57;40.03;;;19.15;;
31224;SDS011;17847;31.524;74.366;2022-10-26T08:39:39;31.75;;;18.63;;
31224;SDS011;17847;31.524;74.366;2022-10-26T08:42:34;40.70;;;17.33;;
31224;SDS011;17847;31.524;74.366;2022-10-26T08:48:18;35.90;;;18.20;;
31224;SDS011;17847;31.524;74.366;2022-10-26T08:51:15;41.92;;;18.20;;
31224;SDS011;17847;31.524;74.366;2022-10-26T08:57:24;33.45;;;17.48;;
31224;SDS011;17847;31.524;74.366;2022-10-26T09:00:27;30.67;;;17.55;;
31224;SDS011;17847;31.524;74.366;2022-10-26T09:03:10;34.33;;;17.05;;
31224;SDS011;17847;31.524;74.366;2022-10-26T09:21:26;38.30;;;18.75;;
31224;SDS011;17847;31.524;74.366;2022-10-26T09:24:32;35.60;;;19.08;;
31224;SDS011;17847;31.524;74.366;2022-10-26T09:30:17;37.78;;;19.25;;
31224;SDS011;17847;31.524;74.366;2022-10-26T09:33:07;39.97;;;21.35;;
31224;SDS011;17847;31.524;74.366;2022-10-26T09:36:28;39.28;;;18.90;;
31224;SDS011;17847;31.524;74.366;2022-10-26T09:39:17;37.60;;;19.88;;
31224;SDS011;17847;31.524;74.366;2022-10-26T09:42:20;35.08;;;20.00;;
31224;SDS011;17847;31.524;74.366;2022-10-26T09:45:32;41.33;;;19.98;;
31224;SDS011;17847;31.524;74.366;2022-10-26T09:48:50;39.38;;;18.70;;
31224;SDS011;17847;31.524;74.366;2022-10-26T09:51:46;48.23;;;21.30;;
31224;SDS011;17847;31.524;74.366;2022-10-26T09:54:35;39.17;;;19.73;;
31224;SDS011;17847;31.524;74.366;2022-10-26T09:57:18;38.28;;;19.63;;
31224;SDS011;17847;31.524;74.366;2022-10-26T10:00:17;31.77;;;19.50;;
31224;SDS011;17847;31.524;74.366;2022-10-26T10:03:02;37.40;;;19.35;;
31224;SDS011;17847;31.524;74.366;2022-10-26T10:06:16;35.58;;;19.15;;
31224;SDS011;17847;31.524;74.366;2022-10-26T10:09:04;36.42;;;18.80;;
31224;SDS011;17847;31.524;74.366;2022-10-26T10:11:58;32.60;;;19.95;;
31224;SDS011;17847;31.524;74.366;2022-10-26T10:14:53;43.42;;;20.25;;
31224;SDS011;17847;31.524;74.366;2022-10-26T10:17:48;36.72;;;20.00;;
31224;SDS011;17847;31.524;74.366;2022-10-26T10:20:36;34.40;;;19.98;;
31224;SDS011;17847;31.524;74.366;2022-10-26T10:23:29;35.13;;;21.60;;
31224;SDS011;17847;31.524;74.366;2022-10-26T10:26:14;36.58;;;19.05;;
31224;SDS011;17847;31.524;74.366;2022-10-26T10:29:02;40.30;;;21.27;;
31224;SDS011;17847;31.524;74.366;2022-10-26T10:31:57;34.92;;;20.27;;
31224;SDS011;17847;31.524;74.366;2022-10-26T10:34:51;42.88;;;22.25;;
31224;SDS011;17847;31.524;74.366;2022-10-26T10:37:40;40.03;;;22.30;;
31224;SDS011;17847;31.524;74.366;2022-10-26T10:40:37;37.13;;;22.35;;
31224;SDS011;17847;31.524;74.366;2022-10-26T10:43:20;40.17;;;23.25;;
31224;SDS011;17847;31.524;74.366;2022-10-26T10:46:09;45.45;;;22.75;;
31224;SDS011;17847;31.524;74.366;2022-10-26T10:49:01;42.67;;;23.13;;
31224;SDS011;17847;31.524;74.366;2022-10-26T10:51:52;42.58;;;23.20;;
31224;SDS011;17847;31.524;74.366;2022-10-26T10:54:37;40.42;;;22.58;;
31224;SDS011;17847;31.524;74.366;2022-10-26T10:57:38;50.30;;;23.10;;
31224;SDS011;17847;31.524;74.366;2022-10-26T11:00:42;44.17;;;23.58;;
31224;SDS011;17847;31.524;74.366;2022-10-26T11:06:24;38.25;;;23.85;;
31224;SDS011;17847;31.524;74.366;2022-10-26T11:09:16;50.53;;;25.23;;
31224;SDS011;17847;31.524;74.366;2022-10-26T11:12:26;57.08;;;25.83;;
31224;SDS011;17847;31.524;74.366;2022-10-26T11:15:20;56.85;;;26.30;;
31224;SDS011;17847;31.524;74.366;2022-10-26T11:18:17;49.55;;;25.95;;
31224;SDS011;17847;31.524;74.366;2022-10-26T11:24:14;50.67;;;24.73;;
31224;SDS011;17847;31.524;74.366;2022-10-26T11:27:14;53.72;;;25.08;;
31224;SDS011;17847;31.524;74.366;2022-10-26T11:30:13;66.60;;;25.13;;
31224;SDS011;17847;31.524;74.366;2022-10-26T11:33:19;48.00;;;25.30;;
31224;SDS011;17847;31.524;74.366;2022-10-26T11:36:11;45.95;;;25.77;;
31224;SDS011;17847;31.524;74.366;2022-10-26T11:39:36;55.35;;;25.45;;
31224;SDS011;17847;31.524;74.366;2022-10-26T11:42:40;51.60;;;25.92;;
31224;SDS011;17847;31.524;74.366;2022-10-26T11:45:33;53.65;;;26.75;;
31224;SDS011;17847;31.524;74.366;2022-10-26T11:48:36;65.72;;;26.17;;
31224;SDS011;17847;31.524;74.366;2022-10-26T11:54:24;52.85;;;28.15;;
31224;SDS011;17847;31.524;74.366;2022-10-26T11:57:21;66.43;;;28.25;;
31224;SDS011;17847;31.524;74.366;2022-10-26T12:00:06;51.72;;;25.60;;
31224;SDS011;17847;31.524;74.366;2022-10-26T12:03:11;60.30;;;28.00;;
31224;SDS011;17847;31.524;74.366;2022-10-26T12:05:57;53.63;;;27.17;;
31224;SDS011;17847;31.524;74.366;2022-10-26T12:08:49;60.70;;;27.48;;
31224;SDS011;17847;31.524;74.366;2022-10-26T12:12:11;59.17;;;28.33;;
31224;SDS011;17847;31.524;74.366;2022-10-26T12:18:42;44.50;;;25.58;;
31224;SDS011;17847;31.524;74.366;2022-10-26T12:24:29;52.53;;;26.33;;
31224;SDS011;17847;31.524;74.366;2022-10-26T12:27:29;56.55;;;28.73;;
31224;SDS011;17847;31.524;74.366;2022-10-26T12:30:38;54.95;;;28.60;;
31224;SDS011;17847;31.524;74.366;2022-10-26T12:33:27;57.40;;;29.35;;
31224;SDS011;17847;31.524;74.366;2022-10-26T12:39:37;58.58;;;28.27;;
31224;SDS011;17847;31.524;74.366;2022-10-26T12:42:28;60.58;;;29.00;;
31224;SDS011;17847;31.524;74.366;2022-10-26T12:45:13;52.55;;;28.40;;
31224;SDS011;17847;31.524;74.366;2022-10-26T12:54:32;52.55;;;29.45;;
31224;SDS011;17847;31.524;74.366;2022-10-26T12:57:29;55.38;;;29.70;;
31224;SDS011;17847;31.524;74.366;2022-10-26T13:00:32;62.53;;;29.63;;
31224;SDS011;17847;31.524;74.366;2022-10-26T13:09:35;63.67;;;31.75;;
31224;SDS011;17847;31.524;74.366;2022-10-26T13:12:45;67.38;;;30.75;;
31224;SDS011;17847;31.524;74.366;2022-10-26T13:15:32;61.90;;;31.70;;
31224;SDS011;17847;31.524;74.366;2022-10-26T13:18:25;66.82;;;31.15;;
31224;SDS011;17847;31.524;74.366;2022-10-26T13:21:10;66.35;;;32.47;;
31224;SDS011;17847;31.524;74.366;2022-10-26T13:24:01;60.50;;;31.83;;
31224;SDS011;17847;31.524;74.366;2022-10-26T13:32:54;67.40;;;32.88;;
31224;SDS011;17847;31.524;74.366;2022-10-26T13:35:44;83.13;;;35.03;;
31224;SDS011;17847;31.524;74.366;2022-10-26T13:38:29;101.82;;;35.38;;
31224;SDS011;17847;31.524;74.366;2022-10-26T13:41:39;95.50;;;36.45;;
31224;SDS011;17847;31.524;74.366;2022-10-26T13:44:27;73.97;;;34.88;;
31224;SDS011;17847;31.524;74.366;2022-10-26T13:47:40;92.45;;;37.38;;
31224;SDS011;17847;31.524;74.366;2022-10-26T14:00:21;84.30;;;37.10;;
31224;SDS011;17847;31.524;74.366;2022-10-26T14:03:16;95.97;;;37.97;;
31224;SDS011;17847;31.524;74.366;2022-10-26T14:09:23;90.93;;;38.05;;
31224;SDS011;17847;31.524;74.366;2022-10-26T14:12:19;91.88;;;39.20;;
31224;SDS011;17847;31.524;74.366;2022-10-26T14:15:04;89.03;;;37.80;;
31224;SDS011;17847;31.524;74.366;2022-10-26T14:17:55;80.57;;;40.65;;
31224;SDS011;17847;31.524;74.366;2022-10-26T14:20:34;85.28;;;42.72;;
31224;SDS011;17847;31.524;74.366;2022-10-26T14:23:36;81.07;;;41.38;;
31224;SDS011;17847;31.524;74.366;2022-10-26T14:26:40;83.97;;;41.03;;
31224;SDS011;17847;31.524;74.366;2022-10-26T14:29:36;80.57;;;42.05;;
31224;SDS011;17847;31.524;74.366;2022-10-26T14:32:39;84.13;;;41.53;;
31224;SDS011;17847;31.524;74.366;2022-10-26T14:35:30;76.95;;;41.85;;
31224;SDS011;17847;31.524;74.366;2022-10-26T14:38:21;83.95;;;42.80;;
31224;SDS011;17847;31.524;74.366;2022-10-26T14:41:13;100.78;;;43.20;;
31224;SDS011;17847;31.524;74.366;2022-10-26T14:43:58;91.80;;;41.65;;
31224;SDS011;17847;31.524;74.366;2022-10-26T14:46:47;83.55;;;41.33;;
31224;SDS011;17847;31.524;74.366;2022-10-26T14:49:30;88.78;;;41.00;;
31224;SDS011;17847;31.524;74.366;2022-10-26T14:52:36;82.53;;;40.50;;
31224;SDS011;17847;31.524;74.366;2022-10-26T14:55:19;99.18;;;45.28;;
31224;SDS011;17847;31.524;74.366;2022-10-26T14:58:41;90.13;;;45.10;;
31224;SDS011;17847;31.524;74.366;2022-10-26T15:01:29;114.65;;;45.72;;
31224;SDS011;17847;31.524;74.366;2022-10-26T15:04:33;103.03;;;46.08;;
31224;SDS011;17847;31.524;74.366;2022-10-26T15:07:18;121.18;;;50.92;;
31224;SDS011;17847;31.524;74.366;2022-10-26T15:10:36;121.28;;;55.05;;
31224;SDS011;17847;31.524;74.366;2022-10-26T15:16:27;133.00;;;59.40;;
31224;SDS011;17847;31.524;74.366;2022-10-26T15:19:12;124.82;;;57.40;;
31224;SDS011;17847;31.524;74.366;2022-10-26T15:22:22;125.00;;;57.53;;
31224;SDS011;17847;31.524;74.366;2022-10-26T15:25:13;131.98;;;59.22;;
31224;SDS011;17847;31.524;74.366;2022-10-26T15:28:08;132.20;;;57.50;;
31224;SDS011;17847;31.524;74.366;2022-10-26T15:36:36;160.80;;;73.47;;
31224;SDS011;17847;31.524;74.366;2022-10-26T15:39:33;172.52;;;75.18;;
31224;SDS011;17847;31.524;74.366;2022-10-26T15:42:11;191.20;;;77.47;;
31224;SDS011;17847;31.524;74.366;2022-10-26T15:45:23;176.23;;;75.97;;
31224;SDS011;17847;31.524;74.366;2022-10-26T15:48:26;144.63;;;70.10;;
31224;SDS011;17847;31.524;74.366;2022-10-26T15:51:22;161.55;;;71.10;;
31224;SDS011;17847;31.524;74.366;2022-10-26T15:54:05;142.63;;;70.38;;
31224;SDS011;17847;31.524;74.366;2022-10-26T15:56:54;124.90;;;63.72;;
31224;SDS011;17847;31.524;74.366;2022-10-26T15:59:37;123.45;;;56.63;;
31224;SDS011;17847;31.524;74.366;2022-10-26T16:02:33;115.90;;;54.75;;
31224;SDS011;17847;31.524;74.366;2022-10-26T16:05:10;103.13;;;52.22;;
31224;SDS011;17847;31.524;74.366;2022-10-26T16:08:08;108.28;;;53.33;;
31224;SDS011;17847;31.524;74.366;2022-10-26T16:11:00;97.23;;;50.93;;
31224;SDS011;17847;31.524;74.366;2022-10-26T16:13:42;94.20;;;49.92;;
31224;SDS011;17847;31.524;74.366;2022-10-26T16:16:31;95.68;;;49.20;;
31224;SDS011;17847;31.524;74.366;2022-10-26T16:19:08;101.32;;;49.63;;
31224;SDS011;17847;31.524;74.366;2022-10-26T16:22:09;91.55;;;48.85;;
31224;SDS011;17847;31.524;74.366;2022-10-26T16:24:52;104.05;;;48.45;;
31224;SDS011;17847;31.524;74.366;2022-10-26T16:27:41;83.35;;;48.20;;
31224;SDS011;17847;31.524;74.366;2022-10-26T16:30:24;82.40;;;47.53;;
31224;SDS011;17847;31.524;74.366;2022-10-26T16:33:13;91.00;;;49.45;;
31224;SDS011;17847;31.524;74.366;2022-10-26T16:35:55;87.15;;;47.65;;
31224;SDS011;17847;31.524;74.366;2022-10-26T16:38:51;86.68;;;47.47;;
31224;SDS011;17847;31.524;74.366;2022-10-26T16:41:27;92.32;;;49.13;;
31224;SDS011;17847;31.524;74.366;2022-10-26T16:44:22;97.63;;;49.70;;
31224;SDS011;17847;31.524;74.366;2022-10-26T16:47:05;86.25;;;48.90;;
31224;SDS011;17847;31.524;74.366;2022-10-26T16:50:06;100.57;;;51.38;;
31224;SDS011;17847;31.524;74.366;2022-10-26T16:52:50;97.60;;;47.47;;
31224;SDS011;17847;31.524;74.366;2022-10-26T16:55:45;95.85;;;49.38;;
31224;SDS011;17847;31.524;74.366;2022-10-26T16:58:28;93.20;;;50.60;;
31224;SDS011;17847;31.524;74.366;2022-10-26T17:01:18;98.63;;;49.45;;
31224;SDS011;17847;31.524;74.366;2022-10-26T17:04:01;92.22;;;47.47;;
31224;SDS011;17847;31.524;74.366;2022-10-26T17:09:39;91.90;;;47.53;;
31224;SDS011;17847;31.524;74.366;2022-10-26T17:12:22;88.72;;;49.17;;
31224;SDS011;17847;31.524;74.366;2022-10-26T17:15:10;90.78;;;48.58;;
31224;SDS011;17847;31.524;74.366;2022-10-26T17:17:54;91.40;;;48.85;;
31224;SDS011;17847;31.524;74.366;2022-10-26T17:20:49;89.13;;;48.05;;
31224;SDS011;17847;31.524;74.366;2022-10-26T17:23:32;90.68;;;49.47;;
31224;SDS011;17847;31.524;74.366;2022-10-26T17:26:20;93.40;;;49.35;;
31224;SDS011;17847;31.524;74.366;2022-10-26T17:29:03;92.10;;;48.75;;
31224;SDS011;17847;31.524;74.366;2022-10-26T17:31:51;82.97;;;48.88;;
31224;SDS011;17847;31.524;74.366;2022-10-26T17:34:34;100.85;;;51.22;;
31224;SDS011;17847;31.524;74.366;2022-10-26T17:37:22;103.40;;;51.15;;
31224;SDS011;17847;31.524;74.366;2022-10-26T17:40:05;82.60;;;49.47;;
31224;SDS011;17847;31.524;74.366;2022-10-26T17:43:02;86.43;;;49.40;;
31224;SDS011;17847;31.524;74.366;2022-10-26T17:45:45;98.70;;;50.47;;
31224;SDS011;17847;31.524;74.366;2022-10-26T17:48:33;89.38;;;48.80;;
31224;SDS011;17847;31.524;74.366;2022-10-26T17:51:18;99.95;;;52.92;;
31224;SDS011;17847;31.524;74.366;2022-10-26T17:54:07;95.18;;;50.83;;
31224;SDS011;17847;31.524;74.366;2022-10-26T17:56:50;87.13;;;50.80;;
31224;SDS011;17847;31.524;74.366;2022-10-26T17:59:38;105.97;;;50.85;;
31224;SDS011;17847;31.524;74.366;2022-10-26T18:02:20;95.80;;;49.88;;
31224;SDS011;17847;31.524;74.366;2022-10-26T18:05:08;92.45;;;49.75;;
31224;SDS011;17847;31.524;74.366;2022-10-26T18:07:51;89.18;;;49.90;;
31224;SDS011;17847;31.524;74.366;2022-10-26T18:10:45;96.85;;;50.58;;
31224;SDS011;17847;31.524;74.366;2022-10-26T18:13:45;89.68;;;50.00;;
31224;SDS011;17847;31.524;74.366;2022-10-26T18:16:28;84.57;;;50.97;;
31224;SDS011;17847;31.524;74.366;2022-10-26T18:19:23;94.07;;;50.72;;
31224;SDS011;17847;31.524;74.366;2022-10-26T18:22:00;90.38;;;52.55;;
31224;SDS011;17847;31.524;74.366;2022-10-26T18:24:55;98.82;;;53.72;;
31224;SDS011;17847;31.524;74.366;2022-10-26T18:27:37;90.93;;;52.67;;
31224;SDS011;17847;31.524;74.366;2022-10-26T18:30:26;86.88;;;50.90;;
31224;SDS011;17847;31.524;74.366;2022-10-26T18:33:09;101.40;;;53.70;;
31224;SDS011;17847;31.524;74.366;2022-10-26T18:36:16;110.43;;;54.40;;
31224;SDS011;17847;31.524;74.366;2022-10-26T18:39:00;103.05;;;52.67;;